sensor_id;sensor_type;location;lat;lon;timestamp;temperature;humidity
46159;DHT22;31888;44.512;26.104;2023-04-23T00:01:59;10.40;99.90
46159;DHT22;31888;44.512;26.104;2023-04-23T00:04:25;10.40;99.90
46159;DHT22;31888;44.512;26.104;2023-04-23T00:06:51;10.40;99.90
46159;DHT22;31888;44.512;26.104;2023-04-23T00:09:16;10.30;99.90
46159;DHT22;31888;44.512;26.104;2023-04-23T00:11:42;10.30;99.90
46159;DHT22;31888;44.512;26.104;2023-04-23T00:14:07;10.20;99.90
46159;DHT22;31888;44.512;26.104;2023-04-23T00:16:32;10.20;99.90
46159;DHT22;31888;44.512;26.104;2023-04-23T00:18:58;10.20;99.90
46159;DHT22;31888;44.512;26.104;2023-04-23T00:21:23;10.10;99.90
46159;DHT22;31888;44.512;26.104;2023-04-23T00:23:49;10.10;99.90
46159;DHT22;31888;44.512;26.104;2023-04-23T00:26:14;10.20;99.90
46159;DHT22;31888;44.512;26.104;2023-04-23T00:28:40;10.10;99.90
46159;DHT22;31888;44.512;26.104;2023-04-23T00:31:06;10.10;99.90
46159;DHT22;31888;44.512;26.104;2023-04-23T00:33:31;10.00;99.90
46159;DHT22;31888;44.512;26.104;2023-04-23T00:35:57;10.00;99.90
46159;DHT22;31888;44.512;26.104;2023-04-23T00:38:22;10.00;99.90
46159;DHT22;31888;44.512;26.104;2023-04-23T00:40:49;10.00;99.90
46159;DHT22;31888;44.512;26.104;2023-04-23T00:43:14;10.00;99.90
46159;DHT22;31888;44.512;26.104;2023-04-23T00:45:39;10.00;99.90
46159;DHT22;31888;44.512;26.104;2023-04-23T00:48:06;10.10;99.90
46159;DHT22;31888;44.512;26.104;2023-04-23T00:50:31;10.00;99.90
46159;DHT22;31888;44.512;26.104;2023-04-23T00:52:57;10.00;99.90
46159;DHT22;31888;44.512;26.104;2023-04-23T00:55:22;10.00;99.90
46159;DHT22;31888;44.512;26.104;2023-04-23T00:57:47;10.00;99.90
46159;DHT22;31888;44.512;26.104;2023-04-23T01:00:13;9.90;99.90
46159;DHT22;31888;44.512;26.104;2023-04-23T01:02:38;9.90;99.90
46159;DHT22;31888;44.512;26.104;2023-04-23T01:05:06;9.80;99.90
46159;DHT22;31888;44.512;26.104;2023-04-23T01:07:33;9.80;99.90
46159;DHT22;31888;44.512;26.104;2023-04-23T01:10:00;9.90;99.90
46159;DHT22;31888;44.512;26.104;2023-04-23T01:12:26;10.00;99.90
46159;DHT22;31888;44.512;26.104;2023-04-23T01:14:51;10.00;99.90
46159;DHT22;31888;44.512;26.104;2023-04-23T01:17:16;10.10;99.90
46159;DHT22;31888;44.512;26.104;2023-04-23T01:19:41;9.90;99.90
46159;DHT22;31888;44.512;26.104;2023-04-23T01:22:10;9.90;99.90
46159;DHT22;31888;44.512;26.104;2023-04-23T01:24:35;9.90;99.90
46159;DHT22;31888;44.512;26.104;2023-04-23T01:27:01;9.80;99.90
46159;DHT22;31888;44.512;26.104;2023-04-23T01:29:26;9.80;99.90
46159;DHT22;31888;44.512;26.104;2023-04-23T01:31:50;9.70;99.90
46159;DHT22;31888;44.512;26.104;2023-04-23T01:34:16;9.80;99.90
46159;DHT22;31888;44.512;26.104;2023-04-23T01:36:42;9.70;99.90
46159;DHT22;31888;44.512;26.104;2023-04-23T01:39:09;9.70;99.90
46159;DHT22;31888;44.512;26.104;2023-04-23T01:41:33;9.70;99.90
46159;DHT22;31888;44.512;26.104;2023-04-23T01:43:59;9.60;99.90
46159;DHT22;31888;44.512;26.104;2023-04-23T01:46:25;9.60;99.90
46159;DHT22;31888;44.512;26.104;2023-04-23T01:48:51;9.60;99.90
46159;DHT22;31888;44.512;26.104;2023-04-23T01:51:17;9.60;99.90
46159;DHT22;31888;44.512;26.104;2023-04-23T01:53:42;9.60;99.90
46159;DHT22;31888;44.512;26.104;2023-04-23T01:56:08;9.60;99.90
46159;DHT22;31888;44.512;26.104;2023-04-23T01:58:33;9.70;99.90
46159;DHT22;31888;44.512;26.104;2023-04-23T02:00:58;9.70;99.90
46159;DHT22;31888;44.512;26.104;2023-04-23T02:03:23;9.60;99.90
46159;DHT22;31888;44.512;26.104;2023-04-23T02:05:50;9.60;99.90
46159;DHT22;31888;44.512;26.104;2023-04-23T02:08:17;9.50;99.90
46159;DHT22;31888;44.512;26.104;2023-04-23T02:10:41;9.60;99.90
46159;DHT22;31888;44.512;26.104;2023-04-23T02:13:08;9.60;99.90
46159;DHT22;31888;44.512;26.104;2023-04-23T02:15:33;9.50;99.90
46159;DHT22;31888;44.512;26.104;2023-04-23T02:18:00;9.50;99.90
46159;DHT22;31888;44.512;26.104;2023-04-23T02:20:24;9.40;99.90
46159;DHT22;31888;44.512;26.104;2023-04-23T02:22:49;9.40;99.90
46159;DHT22;31888;44.512;26.104;2023-04-23T02:25:14;9.30;99.90
46159;DHT22;31888;44.512;26.104;2023-04-23T02:27:40;9.30;99.90
46159;DHT22;31888;44.512;26.104;2023-04-23T02:30:08;9.20;99.90
46159;DHT22;31888;44.512;26.104;2023-04-23T02:32:34;9.10;99.90
46159;DHT22;31888;44.512;26.104;2023-04-23T02:35:00;9.00;99.90
46159;DHT22;31888;44.512;26.104;2023-04-23T02:37:26;9.00;99.90
46159;DHT22;31888;44.512;26.104;2023-04-23T02:39:50;9.00;99.90
46159;DHT22;31888;44.512;26.104;2023-04-23T02:42:15;9.00;99.90
46159;DHT22;31888;44.512;26.104;2023-04-23T02:44:40;9.00;99.90
46159;DHT22;31888;44.512;26.104;2023-04-23T02:47:06;9.10;99.90
46159;DHT22;31888;44.512;26.104;2023-04-23T02:49:32;9.10;99.90
46159;DHT22;31888;44.512;26.104;2023-04-23T02:51:56;9.10;99.90
46159;DHT22;31888;44.512;26.104;2023-04-23T02:54:21;9.10;99.90
46159;DHT22;31888;44.512;26.104;2023-04-23T02:56:46;9.10;99.90
46159;DHT22;31888;44.512;26.104;2023-04-23T02:59:11;9.10;99.90
46159;DHT22;31888;44.512;26.104;2023-04-23T03:01:36;9.10;99.90
46159;DHT22;31888;44.512;26.104;2023-04-23T03:04:04;9.00;99.90
46159;DHT22;31888;44.512;26.104;2023-04-23T03:06:29;9.00;99.90
46159;DHT22;31888;44.512;26.104;2023-04-23T03:08:56;9.10;99.90
46159;DHT22;31888;44.512;26.104;2023-04-23T03:11:22;9.10;99.90
46159;DHT22;31888;44.512;26.104;2023-04-23T03:13:47;9.10;99.90
46159;DHT22;31888;44.512;26.104;2023-04-23T03:16:13;9.00;99.90
46159;DHT22;31888;44.512;26.104;2023-04-23T03:18:39;9.00;99.90
46159;DHT22;31888;44.512;26.104;2023-04-23T03:21:05;9.00;99.90
46159;DHT22;31888;44.512;26.104;2023-04-23T03:23:30;9.00;99.90
46159;DHT22;31888;44.512;26.104;2023-04-23T03:25:54;9.00;99.90
46159;DHT22;31888;44.512;26.104;2023-04-23T03:28:19;9.10;99.90
46159;DHT22;31888;44.512;26.104;2023-04-23T03:30:44;9.10;99.90
46159;DHT22;31888;44.512;26.104;2023-04-23T03:33:09;9.10;99.90
46159;DHT22;31888;44.512;26.104;2023-04-23T03:35:34;9.30;99.90
46159;DHT22;31888;44.512;26.104;2023-04-23T03:38:04;9.60;99.90
46159;DHT22;31888;44.512;26.104;2023-04-23T03:40:31;9.80;99.90
46159;DHT22;31888;44.512;26.104;2023-04-23T03:42:58;10.10;99.90
46159;DHT22;31888;44.512;26.104;2023-04-23T03:45:44;10.60;99.90
46159;DHT22;31888;44.512;26.104;2023-04-23T03:48:09;11.00;99.90
46159;DHT22;31888;44.512;26.104;2023-04-23T03:50:34;11.40;99.90
46159;DHT22;31888;44.512;26.104;2023-04-23T03:53:27;11.70;99.90
46159;DHT22;31888;44.512;26.104;2023-04-23T03:56:20;12.10;99.90
46159;DHT22;31888;44.512;26.104;2023-04-23T03:59:05;12.30;99.90
46159;DHT22;31888;44.512;26.104;2023-04-23T04:01:30;12.60;99.90
46159;DHT22;31888;44.512;26.104;2023-04-23T04:03:58;12.90;99.90
46159;DHT22;31888;44.512;26.104;2023-04-23T04:06:25;13.10;99.90
46159;DHT22;31888;44.512;26.104;2023-04-23T04:08:52;13.30;99.90
46159;DHT22;31888;44.512;26.104;2023-04-23T04:11:17;13.60;99.90
46159;DHT22;31888;44.512;26.104;2023-04-23T04:13:43;13.80;99.90
46159;DHT22;31888;44.512;26.104;2023-04-23T04:16:07;14.00;99.90
46159;DHT22;31888;44.512;26.104;2023-04-23T04:18:32;14.20;99.80
46159;DHT22;31888;44.512;26.104;2023-04-23T04:20:57;14.50;99.00
46159;DHT22;31888;44.512;26.104;2023-04-23T04:23:22;14.90;99.00
46159;DHT22;31888;44.512;26.104;2023-04-23T04:25:49;15.10;98.20
46159;DHT22;31888;44.512;26.104;2023-04-23T04:28:16;15.40;98.10
46159;DHT22;31888;44.512;26.104;2023-04-23T04:30:41;15.70;98.20
46159;DHT22;31888;44.512;26.104;2023-04-23T04:33:06;16.00;97.70
46159;DHT22;31888;44.512;26.104;2023-04-23T04:35:31;16.30;97.50
46159;DHT22;31888;44.512;26.104;2023-04-23T04:37:55;16.60;96.90
46159;DHT22;31888;44.512;26.104;2023-04-23T04:40:20;16.60;96.60
46159;DHT22;31888;44.512;26.104;2023-04-23T04:42:47;16.60;97.10
46159;DHT22;31888;44.512;26.104;2023-04-23T04:45:12;16.90;96.00
46159;DHT22;31888;44.512;26.104;2023-04-23T04:47:36;17.00;95.80
46159;DHT22;31888;44.512;26.104;2023-04-23T04:50:02;17.20;95.40
46159;DHT22;31888;44.512;26.104;2023-04-23T04:52:27;17.30;95.50
46159;DHT22;31888;44.512;26.104;2023-04-23T04:54:52;17.50;95.10
46159;DHT22;31888;44.512;26.104;2023-04-23T04:57:17;17.70;95.00
46159;DHT22;31888;44.512;26.104;2023-04-23T04:59:45;17.60;95.50
46159;DHT22;31888;44.512;26.104;2023-04-23T05:02:10;17.50;95.60
46159;DHT22;31888;44.512;26.104;2023-04-23T05:04:35;17.50;95.70
46159;DHT22;31888;44.512;26.104;2023-04-23T05:07:00;17.70;95.90
46159;DHT22;31888;44.512;26.104;2023-04-23T05:09:25;17.90;95.60
46159;DHT22;31888;44.512;26.104;2023-04-23T05:11:51;18.00;95.50
46159;DHT22;31888;44.512;26.104;2023-04-23T05:14:16;18.30;99.80
46159;DHT22;31888;44.512;26.104;2023-04-23T05:16:42;18.70;95.30
46159;DHT22;31888;44.512;26.104;2023-04-23T05:19:06;18.60;95.30
46159;DHT22;31888;44.512;26.104;2023-04-23T05:21:31;18.50;95.20
46159;DHT22;31888;44.512;26.104;2023-04-23T05:23:56;18.60;95.30
46159;DHT22;31888;44.512;26.104;2023-04-23T05:26:20;18.60;95.80
46159;DHT22;31888;44.512;26.104;2023-04-23T05:28:46;18.90;95.40
46159;DHT22;31888;44.512;26.104;2023-04-23T05:31:10;19.10;94.10
46159;DHT22;31888;44.512;26.104;2023-04-23T05:33:37;19.30;94.40
46159;DHT22;31888;44.512;26.104;2023-04-23T05:36:12;19.60;93.90
46159;DHT22;31888;44.512;26.104;2023-04-23T05:38:37;19.60;93.70
46159;DHT22;31888;44.512;26.104;2023-04-23T05:41:02;19.90;93.80
46159;DHT22;31888;44.512;26.104;2023-04-23T05:43:27;20.00;93.80
46159;DHT22;31888;44.512;26.104;2023-04-23T05:45:52;20.10;93.50
46159;DHT22;31888;44.512;26.104;2023-04-23T05:48:16;20.30;93.10
46159;DHT22;31888;44.512;26.104;2023-04-23T05:50:43;20.50;93.10
46159;DHT22;31888;44.512;26.104;2023-04-23T05:53:08;20.70;92.30
46159;DHT22;31888;44.512;26.104;2023-04-23T05:55:33;20.80;91.90
46159;DHT22;31888;44.512;26.104;2023-04-23T05:57:58;20.80;91.60
46159;DHT22;31888;44.512;26.104;2023-04-23T06:00:22;20.80;91.50
46159;DHT22;31888;44.512;26.104;2023-04-23T06:02:47;20.80;90.90
46159;DHT22;31888;44.512;26.104;2023-04-23T06:05:12;20.70;90.70
46159;DHT22;31888;44.512;26.104;2023-04-23T06:07:44;20.60;90.60
46159;DHT22;31888;44.512;26.104;2023-04-23T06:10:25;20.40;91.00
46159;DHT22;31888;44.512;26.104;2023-04-23T06:12:50;20.70;90.80
46159;DHT22;31888;44.512;26.104;2023-04-23T06:15:17;20.30;91.00
46159;DHT22;31888;44.512;26.104;2023-04-23T06:17:42;20.20;91.10
46159;DHT22;31888;44.512;26.104;2023-04-23T06:20:07;20.20;90.60
46159;DHT22;31888;44.512;26.104;2023-04-23T06:22:34;20.10;90.80
46159;DHT22;31888;44.512;26.104;2023-04-23T06:24:59;20.20;90.60
46159;DHT22;31888;44.512;26.104;2023-04-23T06:27:25;20.10;91.20
46159;DHT22;31888;44.512;26.104;2023-04-23T06:29:56;20.10;91.60
46159;DHT22;31888;44.512;26.104;2023-04-23T06:32:21;20.20;90.80
46159;DHT22;31888;44.512;26.104;2023-04-23T06:34:46;20.30;90.50
46159;DHT22;31888;44.512;26.104;2023-04-23T06:37:24;20.40;89.50
46159;DHT22;31888;44.512;26.104;2023-04-23T06:39:51;20.50;89.80
46159;DHT22;31888;44.512;26.104;2023-04-23T06:42:17;20.40;89.20
46159;DHT22;31888;44.512;26.104;2023-04-23T06:45:02;20.40;89.90
46159;DHT22;31888;44.512;26.104;2023-04-23T06:47:28;20.50;90.00
46159;DHT22;31888;44.512;26.104;2023-04-23T06:49:53;20.70;87.80
46159;DHT22;31888;44.512;26.104;2023-04-23T06:52:18;20.70;88.80
46159;DHT22;31888;44.512;26.104;2023-04-23T06:54:43;20.80;86.90
46159;DHT22;31888;44.512;26.104;2023-04-23T06:57:08;20.60;85.80
46159;DHT22;31888;44.512;26.104;2023-04-23T06:59:34;20.80;83.70
46159;DHT22;31888;44.512;26.104;2023-04-23T07:01:58;20.90;85.50
46159;DHT22;31888;44.512;26.104;2023-04-23T07:04:23;21.20;84.10
46159;DHT22;31888;44.512;26.104;2023-04-23T07:06:49;20.90;83.10
46159;DHT22;31888;44.512;26.104;2023-04-23T07:09:13;20.70;81.70
46159;DHT22;31888;44.512;26.104;2023-04-23T07:11:38;20.70;80.60
46159;DHT22;31888;44.512;26.104;2023-04-23T07:14:03;20.90;82.10
46159;DHT22;31888;44.512;26.104;2023-04-23T07:16:30;21.00;82.70
46159;DHT22;31888;44.512;26.104;2023-04-23T07:18:56;21.20;81.20
46159;DHT22;31888;44.512;26.104;2023-04-23T07:21:21;21.30;79.50
46159;DHT22;31888;44.512;26.104;2023-04-23T07:23:46;21.20;79.10
46159;DHT22;31888;44.512;26.104;2023-04-23T07:26:11;21.20;78.30
46159;DHT22;31888;44.512;26.104;2023-04-23T07:28:36;21.40;77.10
46159;DHT22;31888;44.512;26.104;2023-04-23T07:31:01;21.70;76.10
46159;DHT22;31888;44.512;26.104;2023-04-23T07:33:27;21.80;76.40
46159;DHT22;31888;44.512;26.104;2023-04-23T07:35:52;22.00;74.90
46159;DHT22;31888;44.512;26.104;2023-04-23T07:38:17;22.10;70.70
46159;DHT22;31888;44.512;26.104;2023-04-23T07:40:42;21.70;72.00
46159;DHT22;31888;44.512;26.104;2023-04-23T07:43:07;21.40;72.20
46159;DHT22;31888;44.512;26.104;2023-04-23T07:45:32;20.90;72.10
46159;DHT22;31888;44.512;26.104;2023-04-23T07:47:56;21.10;72.50
46159;DHT22;31888;44.512;26.104;2023-04-23T07:50:23;21.50;71.90
46159;DHT22;31888;44.512;26.104;2023-04-23T07:52:47;21.60;71.30
46159;DHT22;31888;44.512;26.104;2023-04-23T07:55:12;21.80;70.80
46159;DHT22;31888;44.512;26.104;2023-04-23T07:57:37;21.70;68.20
46159;DHT22;31888;44.512;26.104;2023-04-23T08:00:02;21.70;70.00
46159;DHT22;31888;44.512;26.104;2023-04-23T08:02:33;21.70;70.80
46159;DHT22;31888;44.512;26.104;2023-04-23T08:04:58;21.90;71.10
46159;DHT22;31888;44.512;26.104;2023-04-23T08:07:27;22.00;68.90
46159;DHT22;31888;44.512;26.104;2023-04-23T08:09:52;22.00;68.60
46159;DHT22;31888;44.512;26.104;2023-04-23T08:12:17;22.00;68.40
46159;DHT22;31888;44.512;26.104;2023-04-23T08:14:42;21.90;68.10
46159;DHT22;31888;44.512;26.104;2023-04-23T08:17:12;22.10;68.00
46159;DHT22;31888;44.512;26.104;2023-04-23T08:19:37;22.20;68.70
46159;DHT22;31888;44.512;26.104;2023-04-23T08:22:02;22.40;67.30
46159;DHT22;31888;44.512;26.104;2023-04-23T08:24:28;22.00;68.60
46159;DHT22;31888;44.512;26.104;2023-04-23T08:26:53;21.90;69.00
46159;DHT22;31888;44.512;26.104;2023-04-23T08:29:21;21.80;70.20
46159;DHT22;31888;44.512;26.104;2023-04-23T08:31:46;21.80;69.30
46159;DHT22;31888;44.512;26.104;2023-04-23T08:34:11;22.40;68.80
46159;DHT22;31888;44.512;26.104;2023-04-23T08:36:38;22.40;67.70
46159;DHT22;31888;44.512;26.104;2023-04-23T08:39:03;22.70;68.10
46159;DHT22;31888;44.512;26.104;2023-04-23T08:41:39;22.70;69.00
46159;DHT22;31888;44.512;26.104;2023-04-23T08:44:12;22.90;70.10
46159;DHT22;31888;44.512;26.104;2023-04-23T08:46:41;23.10;71.80
46159;DHT22;31888;44.512;26.104;2023-04-23T08:49:07;23.10;70.30
46159;DHT22;31888;44.512;26.104;2023-04-23T08:51:36;23.30;71.10
46159;DHT22;31888;44.512;26.104;2023-04-23T08:54:03;23.20;68.90
46159;DHT22;31888;44.512;26.104;2023-04-23T08:56:31;23.20;70.90
46159;DHT22;31888;44.512;26.104;2023-04-23T08:58:56;23.00;65.10
46159;DHT22;31888;44.512;26.104;2023-04-23T09:01:22;22.60;65.40
46159;DHT22;31888;44.512;26.104;2023-04-23T09:03:47;22.50;66.00
46159;DHT22;31888;44.512;26.104;2023-04-23T09:06:12;22.60;66.60
46159;DHT22;31888;44.512;26.104;2023-04-23T09:08:37;22.60;64.70
46159;DHT22;31888;44.512;26.104;2023-04-23T09:11:04;22.70;68.70
46159;DHT22;31888;44.512;26.104;2023-04-23T09:13:32;22.80;70.40
46159;DHT22;31888;44.512;26.104;2023-04-23T09:15:59;23.20;67.80
46159;DHT22;31888;44.512;26.104;2023-04-23T09:18:23;23.10;69.50
46159;DHT22;31888;44.512;26.104;2023-04-23T09:20:48;23.10;65.00
46159;DHT22;31888;44.512;26.104;2023-04-23T09:23:14;23.10;70.40
46159;DHT22;31888;44.512;26.104;2023-04-23T09:25:41;23.10;65.10
46159;DHT22;31888;44.512;26.104;2023-04-23T09:28:07;23.40;68.20
46159;DHT22;31888;44.512;26.104;2023-04-23T09:30:38;23.40;61.90
46159;DHT22;31888;44.512;26.104;2023-04-23T09:33:04;23.30;65.90
46159;DHT22;31888;44.512;26.104;2023-04-23T09:35:29;23.20;64.90
46159;DHT22;31888;44.512;26.104;2023-04-23T09:37:57;23.00;65.80
46159;DHT22;31888;44.512;26.104;2023-04-23T09:40:27;23.10;63.60
46159;DHT22;31888;44.512;26.104;2023-04-23T09:42:52;23.00;66.10
46159;DHT22;31888;44.512;26.104;2023-04-23T09:45:17;23.40;65.20
46159;DHT22;31888;44.512;26.104;2023-04-23T09:47:48;23.50;64.20
46159;DHT22;31888;44.512;26.104;2023-04-23T09:50:13;23.50;64.00
46159;DHT22;31888;44.512;26.104;2023-04-23T09:52:39;23.30;66.80
46159;DHT22;31888;44.512;26.104;2023-04-23T09:55:05;23.20;62.60
46159;DHT22;31888;44.512;26.104;2023-04-23T09:57:35;23.40;68.20
46159;DHT22;31888;44.512;26.104;2023-04-23T10:00:12;23.40;60.90
46159;DHT22;31888;44.512;26.104;2023-04-23T10:02:39;23.70;70.00
46159;DHT22;31888;44.512;26.104;2023-04-23T10:05:16;23.70;68.00
46159;DHT22;31888;44.512;26.104;2023-04-23T10:07:47;23.60;64.80
46159;DHT22;31888;44.512;26.104;2023-04-23T10:10:13;23.30;63.70
46159;DHT22;31888;44.512;26.104;2023-04-23T10:12:37;23.20;64.70
46159;DHT22;31888;44.512;26.104;2023-04-23T10:15:17;23.30;63.20
46159;DHT22;31888;44.512;26.104;2023-04-23T10:17:41;22.60;63.80
46159;DHT22;31888;44.512;26.104;2023-04-23T10:20:08;22.80;68.30
46159;DHT22;31888;44.512;26.104;2023-04-23T10:22:37;23.00;67.40
46159;DHT22;31888;44.512;26.104;2023-04-23T10:25:04;23.20;62.90
46159;DHT22;31888;44.512;26.104;2023-04-23T10:27:31;23.30;62.60
46159;DHT22;31888;44.512;26.104;2023-04-23T10:30:13;23.40;65.50
46159;DHT22;31888;44.512;26.104;2023-04-23T10:32:38;23.60;65.10
46159;DHT22;31888;44.512;26.104;2023-04-23T10:35:07;23.40;61.40
46159;DHT22;31888;44.512;26.104;2023-04-23T10:37:35;23.30;62.60
46159;DHT22;31888;44.512;26.104;2023-04-23T10:40:04;23.10;65.70
46159;DHT22;31888;44.512;26.104;2023-04-23T10:42:31;23.00;63.20
46159;DHT22;31888;44.512;26.104;2023-04-23T10:44:55;22.80;62.80
46159;DHT22;31888;44.512;26.104;2023-04-23T10:47:35;22.30;64.00
46159;DHT22;31888;44.512;26.104;2023-04-23T10:50:17;21.90;63.90
46159;DHT22;31888;44.512;26.104;2023-04-23T10:52:44;22.00;64.50
46159;DHT22;31888;44.512;26.104;2023-04-23T10:55:15;22.20;62.90
46159;DHT22;31888;44.512;26.104;2023-04-23T10:57:55;22.30;62.40
46159;DHT22;31888;44.512;26.104;2023-04-23T11:00:24;22.60;71.90
46159;DHT22;31888;44.512;26.104;2023-04-23T11:02:50;22.70;64.20
46159;DHT22;31888;44.512;26.104;2023-04-23T11:05:15;23.00;61.90
46159;DHT22;31888;44.512;26.104;2023-04-23T11:07:40;22.90;62.40
46159;DHT22;31888;44.512;26.104;2023-04-23T11:10:12;22.80;64.20
46159;DHT22;31888;44.512;26.104;2023-04-23T11:12:38;23.00;64.60
46159;DHT22;31888;44.512;26.104;2023-04-23T11:15:11;23.10;66.30
46159;DHT22;31888;44.512;26.104;2023-04-23T11:17:58;23.20;65.90
46159;DHT22;31888;44.512;26.104;2023-04-23T11:20:23;23.10;65.00
46159;DHT22;31888;44.512;26.104;2023-04-23T11:22:48;23.10;63.80
46159;DHT22;31888;44.512;26.104;2023-04-23T11:25:19;23.30;61.80
46159;DHT22;31888;44.512;26.104;2023-04-23T11:27:45;23.40;67.70
46159;DHT22;31888;44.512;26.104;2023-04-23T11:30:11;23.50;63.90
46159;DHT22;31888;44.512;26.104;2023-04-23T11:32:36;23.50;64.50
46159;DHT22;31888;44.512;26.104;2023-04-23T11:35:01;23.60;62.00
46159;DHT22;31888;44.512;26.104;2023-04-23T11:37:27;23.70;64.30
46159;DHT22;31888;44.512;26.104;2023-04-23T11:39:52;23.40;62.20
46159;DHT22;31888;44.512;26.104;2023-04-23T11:42:18;23.60;62.70
46159;DHT22;31888;44.512;26.104;2023-04-23T11:44:44;23.50;64.50
46159;DHT22;31888;44.512;26.104;2023-04-23T11:47:11;23.50;61.70
46159;DHT22;31888;44.512;26.104;2023-04-23T11:49:36;23.30;62.50
46159;DHT22;31888;44.512;26.104;2023-04-23T11:52:02;23.50;65.20
46159;DHT22;31888;44.512;26.104;2023-04-23T11:54:27;23.50;63.60
46159;DHT22;31888;44.512;26.104;2023-04-23T11:56:53;23.50;60.40
46159;DHT22;31888;44.512;26.104;2023-04-23T11:59:19;23.40;61.90
46159;DHT22;31888;44.512;26.104;2023-04-23T12:01:45;23.10;62.10
46159;DHT22;31888;44.512;26.104;2023-04-23T12:04:12;22.50;62.00
46159;DHT22;31888;44.512;26.104;2023-04-23T12:06:37;22.40;61.30
46159;DHT22;31888;44.512;26.104;2023-04-23T12:09:02;22.20;61.60
46159;DHT22;31888;44.512;26.104;2023-04-23T12:11:26;22.10;66.20
46159;DHT22;31888;44.512;26.104;2023-04-23T12:13:51;22.40;66.70
46159;DHT22;31888;44.512;26.104;2023-04-23T12:16:17;22.50;62.20
46159;DHT22;31888;44.512;26.104;2023-04-23T12:18:56;22.40;65.10
46159;DHT22;31888;44.512;26.104;2023-04-23T12:21:21;22.40;63.60
46159;DHT22;31888;44.512;26.104;2023-04-23T12:23:50;22.40;61.90
46159;DHT22;31888;44.512;26.104;2023-04-23T12:26:17;22.30;63.50
46159;DHT22;31888;44.512;26.104;2023-04-23T12:28:46;22.10;65.90
46159;DHT22;31888;44.512;26.104;2023-04-23T12:31:21;21.90;63.90
46159;DHT22;31888;44.512;26.104;2023-04-23T12:33:46;21.80;64.40
46159;DHT22;31888;44.512;26.104;2023-04-23T12:36:13;21.70;65.00
46159;DHT22;31888;44.512;26.104;2023-04-23T12:38:38;21.80;62.80
46159;DHT22;31888;44.512;26.104;2023-04-23T12:41:04;21.60;65.40
46159;DHT22;31888;44.512;26.104;2023-04-23T12:43:29;21.60;64.60
46159;DHT22;31888;44.512;26.104;2023-04-23T12:45:54;21.70;63.50
46159;DHT22;31888;44.512;26.104;2023-04-23T12:48:21;21.80;64.00
46159;DHT22;31888;44.512;26.104;2023-04-23T12:50:45;21.70;63.90
46159;DHT22;31888;44.512;26.104;2023-04-23T12:53:10;21.70;64.10
46159;DHT22;31888;44.512;26.104;2023-04-23T12:55:36;21.60;62.90
46159;DHT22;31888;44.512;26.104;2023-04-23T12:58:01;21.60;64.70
46159;DHT22;31888;44.512;26.104;2023-04-23T13:00:26;21.50;65.20
46159;DHT22;31888;44.512;26.104;2023-04-23T13:02:51;21.50;64.30
46159;DHT22;31888;44.512;26.104;2023-04-23T13:05:17;21.50;63.20
46159;DHT22;31888;44.512;26.104;2023-04-23T13:07:42;21.60;64.50
46159;DHT22;31888;44.512;26.104;2023-04-23T13:10:07;21.50;63.10
46159;DHT22;31888;44.512;26.104;2023-04-23T13:12:32;21.10;63.90
46159;DHT22;31888;44.512;26.104;2023-04-23T13:14:57;21.10;69.60
46159;DHT22;31888;44.512;26.104;2023-04-23T13:17:21;21.10;65.30
46159;DHT22;31888;44.512;26.104;2023-04-23T13:19:48;21.10;64.40
46159;DHT22;31888;44.512;26.104;2023-04-23T13:22:14;20.80;66.80
46159;DHT22;31888;44.512;26.104;2023-04-23T13:24:39;21.00;65.00
46159;DHT22;31888;44.512;26.104;2023-04-23T13:27:04;20.70;65.90
46159;DHT22;31888;44.512;26.104;2023-04-23T13:29:31;20.60;66.00
46159;DHT22;31888;44.512;26.104;2023-04-23T13:31:56;20.30;67.90
46159;DHT22;31888;44.512;26.104;2023-04-23T13:34:22;20.20;69.10
46159;DHT22;31888;44.512;26.104;2023-04-23T13:36:46;20.20;67.50
46159;DHT22;31888;44.512;26.104;2023-04-23T13:39:13;20.00;68.00
46159;DHT22;31888;44.512;26.104;2023-04-23T13:41:37;19.80;65.60
46159;DHT22;31888;44.512;26.104;2023-04-23T13:44:02;19.40;68.50
46159;DHT22;31888;44.512;26.104;2023-04-23T13:46:27;19.20;68.60
46159;DHT22;31888;44.512;26.104;2023-04-23T13:48:52;19.10;69.50
46159;DHT22;31888;44.512;26.104;2023-04-23T13:51:17;19.10;68.60
46159;DHT22;31888;44.512;26.104;2023-04-23T13:53:57;19.20;71.20
46159;DHT22;31888;44.512;26.104;2023-04-23T13:56:24;19.40;70.70
46159;DHT22;31888;44.512;26.104;2023-04-23T13:58:50;19.50;67.40
46159;DHT22;31888;44.512;26.104;2023-04-23T14:01:15;19.30;67.90
46159;DHT22;31888;44.512;26.104;2023-04-23T14:03:39;19.20;68.30
46159;DHT22;31888;44.512;26.104;2023-04-23T14:06:04;19.20;70.00
46159;DHT22;31888;44.512;26.104;2023-04-23T14:08:29;19.30;69.90
46159;DHT22;31888;44.512;26.104;2023-04-23T14:10:53;19.30;72.20
46159;DHT22;31888;44.512;26.104;2023-04-23T14:13:19;19.00;77.10
46159;DHT22;31888;44.512;26.104;2023-04-23T14:15:44;18.10;83.80
46159;DHT22;31888;44.512;26.104;2023-04-23T14:18:09;17.70;84.20
46159;DHT22;31888;44.512;26.104;2023-04-23T14:20:34;17.10;89.30
46159;DHT22;31888;44.512;26.104;2023-04-23T14:23:02;16.90;91.10
46159;DHT22;31888;44.512;26.104;2023-04-23T14:25:39;16.60;91.50
46159;DHT22;31888;44.512;26.104;2023-04-23T14:28:26;16.30;91.50
46159;DHT22;31888;44.512;26.104;2023-04-23T14:30:54;15.80;92.00
46159;DHT22;31888;44.512;26.104;2023-04-23T14:33:19;15.80;92.10
46159;DHT22;31888;44.512;26.104;2023-04-23T14:35:44;15.60;93.40
46159;DHT22;31888;44.512;26.104;2023-04-23T14:38:09;15.60;94.10
46159;DHT22;31888;44.512;26.104;2023-04-23T14:40:34;15.80;94.80
46159;DHT22;31888;44.512;26.104;2023-04-23T14:42:59;15.60;95.50
46159;DHT22;31888;44.512;26.104;2023-04-23T14:45:39;15.40;96.60
46159;DHT22;31888;44.512;26.104;2023-04-23T14:48:03;15.30;98.00
46159;DHT22;31888;44.512;26.104;2023-04-23T14:50:28;15.30;99.10
46159;DHT22;31888;44.512;26.104;2023-04-23T14:52:53;15.30;98.50
46159;DHT22;31888;44.512;26.104;2023-04-23T14:55:18;15.30;97.80
46159;DHT22;31888;44.512;26.104;2023-04-23T14:57:42;15.60;98.00
46159;DHT22;31888;44.512;26.104;2023-04-23T15:00:08;15.80;96.60
46159;DHT22;31888;44.512;26.104;2023-04-23T15:02:36;15.90;94.80
46159;DHT22;31888;44.512;26.104;2023-04-23T15:05:01;16.00;93.00
46159;DHT22;31888;44.512;26.104;2023-04-23T15:07:26;16.10;86.00
46159;DHT22;31888;44.512;26.104;2023-04-23T15:09:51;16.50;77.60
46159;DHT22;31888;44.512;26.104;2023-04-23T15:12:36;16.50;80.10
46159;DHT22;31888;44.512;26.104;2023-04-23T15:15:12;16.60;77.10